Time;durP1;ratioP1;P1;durP2;ratioP2;P2;SDS_P1;SDS_P2;PMS_P1;PMS_P2;Temp;Humidity;BMP_temperature;BMP_pressure;BME280_temperature;BME280_humidity;BME280_pressure;Samples;Min_cycle;Max_cycle;Signal;HPM_P1;HPM_P2
2024/01/22 00:01:41;;;;;;;8.15;4.88;;;;;;;;;;5014179;28;20061;-82
2024/01/22 00:04:07;;;;;;;8.70;4.57;;;;;;;;;;5010051;28;20184;-82
2024/01/22 00:06:37;;;;;;;8.60;4.70;;;;;;;;;;5009581;28;20411;-82
2024/01/22 00:09:03;;;;;;;6.20;4.47;;;;;;;;;;5027911;28;20049;-82
2024/01/22 00:11:30;;;;;;;10.05;5.03;;;;;;;;;;5027494;28;20056;-82
2024/01/22 00:13:56;;;;;;;6.57;4.70;;;;;;;;;;5026542;28;20045;-82
2024/01/22 00:16:23;;;;;;;9.48;4.57;;;;;;;;;;5027560;28;20144;-82
2024/01/22 00:18:49;;;;;;;7.82;4.53;;;;;;;;;;4998531;28;20092;-82
2024/01/22 00:21:15;;;;;;;9.75;4.88;;;;;;;;;;5023238;28;20435;-82
2024/01/22 00:23:41;;;;;;;5.30;4.07;;;;;;;;;;5009650;28;20076;-81
2024/01/22 00:26:12;;;;;;;6.88;4.13;;;;;;;;;;5026895;28;20037;-82
2024/01/22 00:28:38;;;;;;;7.65;4.25;;;;;;;;;;5009424;28;20128;-82
2024/01/22 00:31:04;;;;;;;6.78;4.38;;;;;;;;;;5027916;28;20463;-82
2024/01/22 00:33:31;;;;;;;5.72;4.25;;;;;;;;;;5005912;28;20048;-83
2024/01/22 00:35:57;;;;;;;7.25;4.53;;;;;;;;;;5034033;28;20115;-82
2024/01/22 00:38:23;;;;;;;7.90;4.75;;;;;;;;;;4992430;28;20500;-82
2024/01/22 00:40:49;;;;;;;8.43;4.60;;;;;;;;;;5026598;28;20689;-82
2024/01/22 00:43:15;;;;;;;9.18;5.25;;;;;;;;;;5009272;28;20052;-82
2024/01/22 00:45:41;;;;;;;8.80;5.30;;;;;;;;;;4991837;28;20046;-82
2024/01/22 00:48:07;;;;;;;6.80;4.43;;;;;;;;;;5027385;28;20049;-83
2024/01/22 00:50:33;;;;;;;7.40;4.43;;;;;;;;;;5027985;28;20549;-82
2024/01/22 00:52:59;;;;;;;5.78;4.10;;;;;;;;;;5008156;28;20080;-82
2024/01/22 00:55:25;;;;;;;8.80;4.57;;;;;;;;;;5026952;28;20042;-83
2024/01/22 00:57:51;;;;;;;6.78;4.32;;;;;;;;;;5026543;28;20474;-82
2024/01/22 01:00:17;;;;;;;7.38;4.07;;;;;;;;;;5017028;28;20049;-83
2024/01/22 01:02:44;;;;;;;8.02;3.97;;;;;;;;;;4999459;28;20054;-83
2024/01/22 01:05:10;;;;;;;6.60;3.90;;;;;;;;;;5009122;28;20088;-82
2024/01/22 01:07:36;;;;;;;7.78;4.30;;;;;;;;;;4994009;28;20100;-83
2024/01/22 01:10:03;;;;;;;5.53;3.70;;;;;;;;;;5008410;28;20061;-82
2024/01/22 01:12:29;;;;;;;6.93;4.20;;;;;;;;;;5026948;28;20053;-82
2024/01/22 01:14:55;;;;;;;5.53;3.85;;;;;;;;;;4992567;28;20071;-82
2024/01/22 01:17:23;;;;;;;5.75;3.60;;;;;;;;;;5032193;28;20134;-82
2024/01/22 01:19:49;;;;;;;5.30;3.70;;;;;;;;;;5025506;28;20068;-82
2024/01/22 01:22:15;;;;;;;6.47;3.58;;;;;;;;;;5008675;28;20698;-82
2024/01/22 01:24:41;;;;;;;5.03;4.20;;;;;;;;;;5027270;28;20416;-82
2024/01/22 01:27:07;;;;;;;7.50;4.00;;;;;;;;;;5008177;28;20479;-82
2024/01/22 01:29:33;;;;;;;5.15;4.25;;;;;;;;;;5009775;28;20992;-82
2024/01/22 01:31:59;;;;;;;6.75;4.00;;;;;;;;;;5009343;28;20064;-82
2024/01/22 01:34:25;;;;;;;7.45;4.07;;;;;;;;;;5036099;28;20045;-82
2024/01/22 01:36:51;;;;;;;6.50;3.92;;;;;;;;;;5042614;28;20123;-81
2024/01/22 01:39:17;;;;;;;6.50;3.88;;;;;;;;;;5009139;28;20049;-82
2024/01/22 01:41:43;;;;;;;5.47;3.85;;;;;;;;;;5027320;28;20399;-83
2024/01/22 01:44:09;;;;;;;5.68;3.95;;;;;;;;;;4992033;28;20045;-83
2024/01/22 01:46:35;;;;;;;6.18;4.20;;;;;;;;;;5024982;28;20434;-83
2024/01/22 01:49:02;;;;;;;4.85;4.15;;;;;;;;;;5008504;28;20071;-83
2024/01/22 01:51:28;;;;;;;6.85;4.15;;;;;;;;;;5029290;28;20136;-83
2024/01/22 01:53:54;;;;;;;4.93;4.10;;;;;;;;;;5030315;28;20160;-82
2024/01/22 01:56:20;;;;;;;10.30;4.40;;;;;;;;;;5029643;28;20099;-83
2024/01/22 01:58:47;;;;;;;6.68;4.13;;;;;;;;;;4996529;28;20049;-82
2024/01/22 02:01:14;;;;;;;4.70;4.05;;;;;;;;;;5012642;28;20077;-82
2024/01/22 02:03:40;;;;;;;6.47;4.38;;;;;;;;;;5012267;28;20058;-83
2024/01/22 02:06:06;;;;;;;9.82;4.75;;;;;;;;;;5012034;28;20056;-83
2024/01/22 02:08:32;;;;;;;7.25;4.20;;;;;;;;;;5011238;28;20041;-83
2024/01/22 02:10:58;;;;;;;6.03;4.80;;;;;;;;;;5013628;28;20422;-82
2024/01/22 02:13:26;;;;;;;8.27;4.18;;;;;;;;;;5032122;28;20063;-83
2024/01/22 02:15:52;;;;;;;7.28;4.20;;;;;;;;;;5027889;28;20103;-82
2024/01/22 02:18:18;;;;;;;8.27;4.25;;;;;;;;;;5012588;28;20783;-81
2024/01/22 02:20:44;;;;;;;7.13;4.50;;;;;;;;;;5030266;28;20124;-82
2024/01/22 02:23:10;;;;;;;7.72;4.57;;;;;;;;;;5028298;28;20041;-82
2024/01/22 02:25:36;;;;;;;5.47;3.90;;;;;;;;;;5012338;28;20245;-82
2024/01/22 02:28:02;;;;;;;7.57;4.25;;;;;;;;;;5012120;28;20060;-84
2024/01/22 02:30:28;;;;;;;5.80;4.68;;;;;;;;;;5011558;28;20044;-82
2024/01/22 02:32:54;;;;;;;6.10;4.10;;;;;;;;;;4997553;28;20045;-83
2024/01/22 02:35:23;;;;;;;5.03;4.05;;;;;;;;;;5011924;28;20119;-82
2024/01/22 02:37:49;;;;;;;7.28;4.55;;;;;;;;;;5029147;28;20049;-84
2024/01/22 02:40:15;;;;;;;7.50;4.20;;;;;;;;;;5011183;28;20124;-82
2024/01/22 02:42:41;;;;;;;5.60;4.15;;;;;;;;;;5044539;28;20095;-82
2024/01/22 02:45:07;;;;;;;5.97;4.22;;;;;;;;;;5011239;28;20055;-82
2024/01/22 02:47:35;;;;;;;5.28;4.40;;;;;;;;;;5008250;28;20042;-82
2024/01/22 02:50:01;;;;;;;7.60;4.13;;;;;;;;;;5015824;28;20045;-81
2024/01/22 02:52:28;;;;;;;5.03;4.32;;;;;;;;;;5010731;28;20483;-84
2024/01/22 02:54:54;;;;;;;5.38;4.28;;;;;;;;;;5012103;28;20168;-83
2024/01/22 02:57:20;;;;;;;7.00;4.10;;;;;;;;;;5011128;28;20788;-83
2024/01/22 02:59:46;;;;;;;8.68;4.10;;;;;;;;;;5003280;28;21015;-82
2024/01/22 03:02:12;;;;;;;5.80;3.97;;;;;;;;;;5018593;28;20450;-82
2024/01/22 03:04:38;;;;;;;7.13;3.97;;;;;;;;;;4995779;28;20379;-83
2024/01/22 03:07:04;;;;;;;6.05;4.50;;;;;;;;;;5011803;28;20055;-82
2024/01/22 03:09:30;;;;;;;7.35;3.95;;;;;;;;;;5029388;28;20052;-82
2024/01/22 03:11:57;;;;;;;5.10;4.18;;;;;;;;;;5013097;28;20053;-83
2024/01/22 03:14:23;;;;;;;6.63;4.10;;;;;;;;;;5000360;28;20379;-83
2024/01/22 03:16:49;;;;;;;6.70;4.50;;;;;;;;;;5011520;28;20045;-82
2024/01/22 03:19:15;;;;;;;5.68;3.75;;;;;;;;;;5029073;28;20045;-83
2024/01/22 03:21:41;;;;;;;5.80;4.03;;;;;;;;;;5011410;28;20100;-83
2024/01/22 03:24:07;;;;;;;7.07;3.85;;;;;;;;;;5010462;28;20128;-83
2024/01/22 03:26:33;;;;;;;6.28;3.85;;;;;;;;;;4994706;28;20567;-83
2024/01/22 03:28:59;;;;;;;5.78;3.95;;;;;;;;;;5017739;28;20048;-83
2024/01/22 03:31:26;;;;;;;5.35;3.60;;;;;;;;;;5028742;28;20054;-83
2024/01/22 03:33:53;;;;;;;5.07;3.78;;;;;;;;;;5011047;28;20045;-82
2024/01/22 03:36:19;;;;;;;5.63;3.85;;;;;;;;;;5011235;28;20053;-83
2024/01/22 03:38:48;;;;;;;4.57;3.72;;;;;;;;;;5027639;28;20045;-83
2024/01/22 03:41:14;;;;;;;4.38;3.80;;;;;;;;;;4994193;28;20049;-83
2024/01/22 03:43:44;;;;;;;5.22;3.65;;;;;;;;;;5039780;28;20545;-84
2024/01/22 03:46:11;;;;;;;7.25;3.95;;;;;;;;;;5017819;28;20582;-83
2024/01/22 03:48:37;;;;;;;6.32;3.88;;;;;;;;;;5009747;28;20146;-82
2024/01/22 03:51:05;;;;;;;4.30;3.47;;;;;;;;;;5010388;28;20053;-82
2024/01/22 03:53:31;;;;;;;6.22;3.50;;;;;;;;;;5016790;28;20050;-82
2024/01/22 03:55:57;;;;;;;5.82;3.95;;;;;;;;;;5022667;28;20045;-82
2024/01/22 03:58:23;;;;;;;5.80;3.92;;;;;;;;;;5008284;28;20075;-85
2024/01/22 04:00:49;;;;;;;3.78;3.40;;;;;;;;;;5015583;28;20040;-82
2024/01/22 04:03:15;;;;;;;5.63;3.63;;;;;;;;;;4998948;28;20527;-83
2024/01/22 04:05:43;;;;;;;5.07;3.72;;;;;;;;;;4994122;28;20080;-83
2024/01/22 04:08:09;;;;;;;5.75;3.72;;;;;;;;;;4997553;28;20172;-83
2024/01/22 04:10:35;;;;;;;6.40;4.00;;;;;;;;;;5031571;28;20494;-82
2024/01/22 04:13:01;;;;;;;6.03;3.55;;;;;;;;;;5006864;28;20099;-83
2024/01/22 04:15:27;;;;;;;5.53;3.75;;;;;;;;;;5003294;28;20095;-83
2024/01/22 04:17:53;;;;;;;4.05;3.35;;;;;;;;;;5036838;28;20046;-83
2024/01/22 04:20:19;;;;;;;4.97;3.88;;;;;;;;;;5031343;28;20511;-84
2024/01/22 04:22:45;;;;;;;6.72;3.50;;;;;;;;;;5008944;28;20041;-82
2024/01/22 04:25:11;;;;;;;4.88;3.67;;;;;;;;;;5010630;28;20041;-83
2024/01/22 04:27:37;;;;;;;4.47;3.20;;;;;;;;;;5029052;28;20049;-83
2024/01/22 04:30:04;;;;;;;5.38;3.33;;;;;;;;;;5019755;28;20042;-81
2024/01/22 04:32:30;;;;;;;4.88;3.55;;;;;;;;;;5022831;28;20099;-82
2024/01/22 04:34:56;;;;;;;4.38;3.20;;;;;;;;;;4992504;28;20053;-84
2024/01/22 04:37:22;;;;;;;6.03;3.20;;;;;;;;;;5013085;28;20045;-83
2024/01/22 04:39:48;;;;;;;4.70;3.80;;;;;;;;;;5013171;28;20135;-82
2024/01/22 04:42:20;;;;;;;4.40;3.30;;;;;;;;;;5012701;28;20045;-82
2024/01/22 04:44:46;;;;;;;4.75;3.08;;;;;;;;;;4995967;28;20055;-82
2024/01/22 04:47:12;;;;;;;4.90;3.05;;;;;;;;;;5013144;28;20053;-82
2024/01/22 04:49:38;;;;;;;5.90;3.08;;;;;;;;;;5012854;28;20041;-83
2024/01/22 04:52:04;;;;;;;3.70;3.33;;;;;;;;;;5012200;28;20046;-82
2024/01/22 04:54:30;;;;;;;3.83;2.95;;;;;;;;;;5012910;28;20140;-82
2024/01/22 04:56:56;;;;;;;4.35;3.10;;;;;;;;;;5025393;28;20451;-82
2024/01/22 04:59:22;;;;;;;3.33;2.85;;;;;;;;;;5042420;28;20088;-83
2024/01/22 05:01:48;;;;;;;3.20;2.80;;;;;;;;;;4993353;28;20061;-81
2024/01/22 05:04:14;;;;;;;3.45;2.80;;;;;;;;;;5012294;28;20424;-83
2024/01/22 05:06:41;;;;;;;3.78;2.83;;;;;;;;;;5012798;28;20052;-81
2024/01/22 05:09:07;;;;;;;2.88;2.67;;;;;;;;;;5007811;28;20872;-82
2024/01/22 05:11:33;;;;;;;3.30;2.65;;;;;;;;;;5009798;28;20098;-83
2024/01/22 05:13:59;;;;;;;3.90;2.70;;;;;;;;;;5012915;28;20052;-82
2024/01/22 05:16:25;;;;;;;4.50;2.58;;;;;;;;;;5013222;28;20056;-83
2024/01/22 05:18:53;;;;;;;3.90;2.50;;;;;;;;;;5012979;28;20407;-83
2024/01/22 05:21:21;;;;;;;3.70;2.70;;;;;;;;;;4996517;28;20053;-82
2024/01/22 05:23:48;;;;;;;3.35;2.53;;;;;;;;;;5010944;28;20049;-83
2024/01/22 05:26:14;;;;;;;2.70;2.50;;;;;;;;;;5024348;28;20140;-83
2024/01/22 05:28:40;;;;;;;2.50;2.28;;;;;;;;;;5026281;28;20792;-81
2024/01/22 05:31:06;;;;;;;3.88;2.40;;;;;;;;;;5016853;28;20041;-83
2024/01/22 05:33:32;;;;;;;4.40;2.53;;;;;;;;;;5016155;28;20130;-83
2024/01/22 05:35:59;;;;;;;3.30;2.60;;;;;;;;;;5023018;28;20374;-82
2024/01/22 05:38:25;;;;;;;2.63;1.90;;;;;;;;;;5031468;28;20045;-84
2024/01/22 05:40:52;;;;;;;3.13;2.08;;;;;;;;;;5015951;28;20049;-82
2024/01/22 05:43:18;;;;;;;3.22;2.20;;;;;;;;;;5015388;28;20045;-83
2024/01/22 05:45:44;;;;;;;5.25;1.98;;;;;;;;;;5015176;28;20045;-83
2024/01/22 05:48:10;;;;;;;2.08;1.88;;;;;;;;;;5016251;28;20046;-82
2024/01/22 05:50:36;;;;;;;2.60;2.05;;;;;;;;;;5013954;28;20535;-82
2024/01/22 05:53:05;;;;;;;2.03;1.67;;;;;;;;;;5034665;28;20140;-82
2024/01/22 05:55:31;;;;;;;2.03;1.75;;;;;;;;;;5033767;28;20140;-84
2024/01/22 05:58:01;;;;;;;2.28;1.63;;;;;;;;;;5013978;28;20072;-82
2024/01/22 06:00:27;;;;;;;3.00;1.60;;;;;;;;;;5032493;28;20129;-82
2024/01/22 06:02:54;;;;;;;2.22;1.52;;;;;;;;;;5029896;28;20091;-82
2024/01/22 06:05:20;;;;;;;2.80;1.40;;;;;;;;;;5013302;28;20064;-83
2024/01/22 06:07:46;;;;;;;6.15;2.08;;;;;;;;;;5014335;28;20111;-83
2024/01/22 06:10:12;;;;;;;3.75;2.55;;;;;;;;;;5028947;28;20037;-84
2024/01/22 06:12:38;;;;;;;3.50;2.40;;;;;;;;;;5030749;28;20042;-82
2024/01/22 06:15:04;;;;;;;4.57;2.15;;;;;;;;;;5014319;28;20084;-83
2024/01/22 06:17:33;;;;;;;2.47;1.90;;;;;;;;;;5031852;28;20376;-81
2024/01/22 06:20:00;;;;;;;2.83;1.50;;;;;;;;;;5013300;28;20045;-82
2024/01/22 06:22:26;;;;;;;1.67;1.35;;;;;;;;;;4997853;28;20118;-83
2024/01/22 06:24:53;;;;;;;2.25;1.58;;;;;;;;;;5013779;28;20049;-83
2024/01/22 06:27:19;;;;;;;2.35;1.20;;;;;;;;;;5031560;28;20048;-82
2024/01/22 06:29:45;;;;;;;3.00;1.25;;;;;;;;;;5012918;28;20599;-83
2024/01/22 06:32:11;;;;;;;1.33;1.10;;;;;;;;;;4997095;28;20041;-83
2024/01/22 06:34:37;;;;;;;1.73;1.30;;;;;;;;;;5011298;28;20076;-81
2024/01/22 06:37:04;;;;;;;1.60;1.05;;;;;;;;;;5010890;28;20073;-81
2024/01/22 06:39:30;;;;;;;4.28;1.30;;;;;;;;;;5011226;28;20049;-81
2024/01/22 06:41:56;;;;;;;0.95;0.85;;;;;;;;;;5028196;28;20111;-83
2024/01/22 06:44:22;;;;;;;2.28;1.20;;;;;;;;;;5029839;28;20057;-82
2024/01/22 06:46:48;;;;;;;2.08;1.38;;;;;;;;;;5028074;28;20135;-81
2024/01/22 06:49:14;;;;;;;2.90;1.48;;;;;;;;;;5011458;28;20096;-83
2024/01/22 06:51:40;;;;;;;1.20;1.10;;;;;;;;;;4994689;28;20049;-82
2024/01/22 06:54:06;;;;;;;3.38;1.30;;;;;;;;;;5027315;28;20513;-84
2024/01/22 06:56:32;;;;;;;4.30;1.50;;;;;;;;;;5024987;28;20041;-83
2024/01/22 06:58:59;;;;;;;3.58;1.80;;;;;;;;;;5005589;28;20037;-82
2024/01/22 07:01:27;;;;;;;7.43;2.53;;;;;;;;;;4996498;28;20140;-83
2024/01/22 07:03:54;;;;;;;5.82;1.77;;;;;;;;;;4995264;28;20057;-82
2024/01/22 07:06:20;;;;;;;8.40;2.45;;;;;;;;;;5012258;28;20095;-83
2024/01/22 07:08:46;;;;;;;11.52;2.50;;;;;;;;;;5011704;28;20056;-83
2024/01/22 07:11:13;;;;;;;8.50;2.30;;;;;;;;;;4993571;28;20053;-83
2024/01/22 07:13:39;;;;;;;8.55;2.25;;;;;;;;;;5012815;28;20045;-83
2024/01/22 07:16:07;;;;;;;12.18;2.35;;;;;;;;;;5012749;28;20045;-83
2024/01/22 07:18:33;;;;;;;13.88;2.45;;;;;;;;;;5012280;28;20049;-83
2024/01/22 07:21:00;;;;;;;11.63;2.30;;;;;;;;;;5011478;28;20064;-82
2024/01/22 07:23:27;;;;;;;13.75;3.47;;;;;;;;;;5012162;28;20084;-82
2024/01/22 07:25:54;;;;;;;12.45;2.60;;;;;;;;;;5012226;28;20044;-83
2024/01/22 07:28:20;;;;;;;10.32;2.88;;;;;;;;;;4998375;28;20525;-82
2024/01/22 07:30:46;;;;;;;13.15;2.65;;;;;;;;;;5045069;28;20499;-82
2024/01/22 07:33:12;;;;;;;12.98;3.33;;;;;;;;;;4999975;28;20400;-82
2024/01/22 07:35:38;;;;;;;13.65;3.17;;;;;;;;;;5012883;28;20077;-82
2024/01/22 07:38:07;;;;;;;16.90;2.90;;;;;;;;;;5012663;28;20046;-81
2024/01/22 07:40:33;;;;;;;13.18;2.78;;;;;;;;;;5013725;28;20045;-81
2024/01/22 07:43:01;;;;;;;12.90;3.03;;;;;;;;;;5012547;28;20550;-81
2024/01/22 07:45:27;;;;;;;15.15;3.10;;;;;;;;;;5030336;28;20571;-82
2024/01/22 07:47:53;;;;;;;17.67;3.58;;;;;;;;;;5035330;28;20119;-81
2024/01/22 07:50:20;;;;;;;17.05;4.03;;;;;;;;;;5032680;28;20730;-81
2024/01/22 07:52:46;;;;;;;17.48;3.63;;;;;;;;;;5012998;28;20088;-81
2024/01/22 07:55:13;;;;;;;14.25;3.38;;;;;;;;;;4996528;28;20136;-82
2024/01/22 07:57:40;;;;;;;16.45;3.70;;;;;;;;;;5029226;28;20103;-82
2024/01/22 08:00:11;;;;;;;10.00;2.90;;;;;;;;;;5012202;28;20052;-81
2024/01/22 08:02:39;;;;;;;14.82;3.40;;;;;;;;;;4996166;28;20096;-81
2024/01/22 08:05:06;;;;;;;13.55;4.22;;;;;;;;;;5031323;28;20136;-81
2024/01/22 08:07:32;;;;;;;15.07;3.05;;;;;;;;;;5030402;28;20457;-83
2024/01/22 08:10:01;;;;;;;13.45;3.53;;;;;;;;;;5030793;28;20557;-80
2024/01/22 08:12:27;;;;;;;15.68;3.40;;;;;;;;;;5029428;28;20049;-82
2024/01/22 08:14:53;;;;;;;13.30;2.83;;;;;;;;;;5029802;28;20128;-82
2024/01/22 08:17:20;;;;;;;13.02;2.80;;;;;;;;;;5010666;28;20045;-81
2024/01/22 08:19:46;;;;;;;11.75;3.47;;;;;;;;;;5018297;28;20525;-81
2024/01/22 08:22:12;;;;;;;10.15;3.38;;;;;;;;;;5035261;28;20755;-81
2024/01/22 08:24:38;;;;;;;16.70;4.22;;;;;;;;;;5028608;28;20128;-80
2024/01/22 08:27:04;;;;;;;15.95;3.15;;;;;;;;;;5010919;28;20137;-84
2024/01/22 08:29:30;;;;;;;13.13;3.45;;;;;;;;;;5012169;28;20053;-82
2024/01/22 08:31:58;;;;;;;13.77;3.35;;;;;;;;;;5030000;28;20517;-82
2024/01/22 08:34:24;;;;;;;10.85;3.10;;;;;;;;;;5011513;28;20136;-81
2024/01/22 08:36:50;;;;;;;14.10;3.42;;;;;;;;;;5028792;28;20041;-81
2024/01/22 08:39:16;;;;;;;12.38;3.15;;;;;;;;;;5009426;28;20646;-82
2024/01/22 08:41:42;;;;;;;8.55;3.00;;;;;;;;;;5010009;28;20041;-82
2024/01/22 08:44:08;;;;;;;13.02;3.38;;;;;;;;;;5010599;28;20045;-81
2024/01/22 08:46:34;;;;;;;13.18;3.10;;;;;;;;;;5010284;28;20514;-81
2024/01/22 08:49:00;;;;;;;9.65;2.90;;;;;;;;;;5027780;28;20045;-81
2024/01/22 08:51:28;;;;;;;13.38;3.30;;;;;;;;;;5028772;28;20107;-80
2024/01/22 08:53:53;;;;;;;9.32;2.85;;;;;;;;;;5027565;28;20774;-81
2024/01/22 08:56:20;;;;;;;10.63;3.15;;;;;;;;;;5027873;28;20052;-80
2024/01/22 08:58:46;;;;;;;12.68;2.95;;;;;;;;;;5027664;28;20045;-81
2024/01/22 09:01:12;;;;;;;11.85;2.72;;;;;;;;;;4997894;28;20046;-80
2024/01/22 09:03:38;;;;;;;8.43;2.70;;;;;;;;;;5010359;28;20057;-82
2024/01/22 09:06:05;;;;;;;12.23;3.10;;;;;;;;;;4993436;28;20464;-80
2024/01/22 09:08:33;;;;;;;19.95;3.90;;;;;;;;;;5009546;28;20049;-79
2024/01/22 09:11:00;;;;;;;13.73;3.53;;;;;;;;;;5010033;28;20061;-82
2024/01/22 09:13:27;;;;;;;20.25;3.92;;;;;;;;;;5027332;28;20537;-81
2024/01/22 09:15:53;;;;;;;23.25;4.75;;;;;;;;;;5026176;28;20050;-80
2024/01/22 09:18:19;;;;;;;27.73;4.90;;;;;;;;;;5029793;28;20052;-81
2024/01/22 09:20:45;;;;;;;26.02;5.07;;;;;;;;;;5045209;28;20045;-84
2024/01/22 09:23:11;;;;;;;27.17;4.68;;;;;;;;;;5007623;28;20096;-81
2024/01/22 09:25:40;;;;;;;28.42;5.57;;;;;;;;;;5027991;28;20038;-81
2024/01/22 09:28:06;;;;;;;32.83;5.75;;;;;;;;;;5026900;28;20049;-82
2024/01/22 09:30:33;;;;;;;28.05;5.22;;;;;;;;;;5025793;28;20061;-81
2024/01/22 09:32:59;;;;;;;28.80;5.32;;;;;;;;;;5008778;28;20837;-80
2024/01/22 09:35:25;;;;;;;26.05;4.97;;;;;;;;;;5028352;28;20140;-79
2024/01/22 09:37:52;;;;;;;26.77;6.50;;;;;;;;;;5028993;28;20045;-81
2024/01/22 09:40:18;;;;;;;28.67;5.40;;;;;;;;;;5047429;28;20052;-79
2024/01/22 09:42:45;;;;;;;30.33;6.30;;;;;;;;;;5030534;28;20526;-80
2024/01/22 09:45:11;;;;;;;29.75;5.75;;;;;;;;;;5026554;28;20179;-81
2024/01/22 09:47:37;;;;;;;32.33;6.85;;;;;;;;;;5026620;28;20170;-81
2024/01/22 09:50:04;;;;;;;28.10;6.05;;;;;;;;;;5027322;28;20129;-81
2024/01/22 09:52:33;;;;;;;31.48;6.13;;;;;;;;;;5026619;28;20042;-83
2024/01/22 09:54:59;;;;;;;33.20;6.20;;;;;;;;;;5009821;28;20046;-82
2024/01/22 09:57:27;;;;;;;34.85;7.13;;;;;;;;;;5009000;28;20598;-82
2024/01/22 09:59:53;;;;;;;40.30;7.10;;;;;;;;;;5009959;28;20172;-81
2024/01/22 10:02:19;;;;;;;37.85;7.72;;;;;;;;;;5030685;28;20060;-83
2024/01/22 10:04:45;;;;;;;33.85;6.32;;;;;;;;;;5024734;28;20057;-80
2024/01/22 10:07:15;;;;;;;35.33;6.25;;;;;;;;;;5023667;28;20084;-81
2024/01/22 10:09:42;;;;;;;35.75;7.40;;;;;;;;;;5025887;28;20128;-81
2024/01/22 10:12:08;;;;;;;34.35;6.50;;;;;;;;;;5009117;28;20068;-81
2024/01/22 10:14:35;;;;;;;40.05;7.60;;;;;;;;;;5002583;28;20519;-82
2024/01/22 10:17:15;;;;;;;36.25;7.47;;;;;;;;;;5000886;28;20057;-81
2024/01/22 10:19:42;;;;;;;34.70;6.75;;;;;;;;;;5027917;28;20053;-81
2024/01/22 10:22:08;;;;;;;32.65;6.15;;;;;;;;;;5012546;28;20097;-83
2024/01/22 10:24:34;;;;;;;32.95;6.13;;;;;;;;;;5013116;28;20410;-83
2024/01/22 10:27:16;;;;;;;42.28;6.78;;;;;;;;;;5011936;28;20449;-81
2024/01/22 10:29:45;;;;;;;33.97;6.83;;;;;;;;;;5015017;28;20061;-81
2024/01/22 10:32:11;;;;;;;40.47;6.65;;;;;;;;;;5031192;28;20304;-82
2024/01/22 10:34:50;;;;;;;32.17;6.10;;;;;;;;;;5031182;28;20072;-81
2024/01/22 10:37:17;;;;;;;34.55;6.50;;;;;;;;;;5031368;28;20114;-81
2024/01/22 10:39:43;;;;;;;42.63;6.10;;;;;;;;;;4996102;28;20076;-82
2024/01/22 10:42:10;;;;;;;38.80;7.28;;;;;;;;;;5047587;28;20056;-81
2024/01/22 10:44:40;;;;;;;30.65;6.95;;;;;;;;;;5027831;28;20042;-82
2024/01/22 10:47:06;;;;;;;38.15;6.93;;;;;;;;;;5012195;28;20049;-81
2024/01/22 10:49:32;;;;;;;36.20;6.60;;;;;;;;;;5012908;28;20484;-82
2024/01/22 10:52:05;;;;;;;35.63;6.57;;;;;;;;;;5013222;28;20137;-81
2024/01/22 10:54:35;;;;;;;34.15;6.10;;;;;;;;;;5013335;28;20053;-81
2024/01/22 10:57:05;;;;;;;30.08;6.15;;;;;;;;;;4996620;28;20046;-82
2024/01/22 10:59:36;;;;;;;31.55;6.57;;;;;;;;;;5013717;28;20045;-81
2024/01/22 11:02:06;;;;;;;27.70;6.00;;;;;;;;;;5045194;28;20061;-81
2024/01/22 11:04:53;;;;;;;32.63;6.75;;;;;;;;;;5009477;28;20097;-81
2024/01/22 11:07:20;;;;;;;32.83;6.68;;;;;;;;;;4991901;28;20125;-82
2024/01/22 11:09:49;;;;;;;32.50;6.78;;;;;;;;;;5014654;28;20047;-82
2024/01/22 11:12:19;;;;;;;27.75;5.38;;;;;;;;;;5011243;28;20514;-82
2024/01/22 11:14:45;;;;;;;33.80;6.07;;;;;;;;;;5011014;28;20557;-82
2024/01/22 11:17:13;;;;;;;33.22;7.72;;;;;;;;;;5029745;28;20081;-82
2024/01/22 11:19:39;;;;;;;34.03;5.78;;;;;;;;;;5010597;28;20041;-81
2024/01/22 11:22:13;;;;;;;26.35;5.75;;;;;;;;;;4994539;28;20160;-82
2024/01/22 11:24:40;;;;;;;31.25;6.05;;;;;;;;;;4993959;28;20052;-80
2024/01/22 11:27:07;;;;;;;32.28;6.55;;;;;;;;;;5028097;28;20041;-81
2024/01/22 11:29:34;;;;;;;25.90;6.05;;;;;;;;;;5031083;28;20060;-82
2024/01/22 11:32:38;;;;;;;27.85;5.43;;;;;;;;;;5028000;28;20041;-82
2024/01/22 11:35:05;;;;;;;31.42;6.05;;;;;;;;;;4932197;28;20055;-80
2024/01/22 11:37:35;;;;;;;29.58;5.13;;;;;;;;;;4948454;28;20043;-81
2024/01/22 11:40:01;;;;;;;24.75;5.00;;;;;;;;;;4988975;28;20626;-81
2024/01/22 11:42:28;;;;;;;27.20;6.05;;;;;;;;;;5028521;28;20140;-81
2024/01/22 11:44:55;;;;;;;32.38;5.43;;;;;;;;;;5028236;28;20503;-80
2024/01/22 11:47:22;;;;;;;19.38;4.60;;;;;;;;;;5010573;28;20522;-81
2024/01/22 11:49:49;;;;;;;33.55;6.30;;;;;;;;;;5027312;28;20119;-81
2024/01/22 11:52:16;;;;;;;29.38;6.32;;;;;;;;;;5009127;28;20041;-81
2024/01/22 11:54:52;;;;;;;20.90;5.07;;;;;;;;;;5013402;28;20583;-81
2024/01/22 11:57:18;;;;;;;20.42;5.03;;;;;;;;;;5029026;28;20037;-82
2024/01/22 12:00:04;;;;;;;28.30;5.90;;;;;;;;;;5026405;28;20037;-82
2024/01/22 12:02:31;;;;;;;29.35;6.25;;;;;;;;;;5009755;28;20099;-81
2024/01/22 12:05:09;;;;;;;28.83;5.72;;;;;;;;;;4997249;28;20502;-81
2024/01/22 12:07:39;;;;;;;25.42;5.18;;;;;;;;;;4994930;28;20042;-82
2024/01/22 12:10:07;;;;;;;27.88;5.30;;;;;;;;;;5009688;28;20033;-84
2024/01/22 12:12:33;;;;;;;23.13;5.57;;;;;;;;;;4992633;28;20551;-83
2024/01/22 12:15:01;;;;;;;26.92;6.05;;;;;;;;;;5008845;28;20039;-83
2024/01/22 12:17:27;;;;;;;22.33;5.40;;;;;;;;;;5010663;28;20057;-81
2024/01/22 12:19:54;;;;;;;27.92;5.20;;;;;;;;;;5002773;28;20077;-79
2024/01/22 12:22:22;;;;;;;20.52;5.03;;;;;;;;;;4999589;28;20057;-81
2024/01/22 12:25:08;;;;;;;22.48;4.82;;;;;;;;;;5005254;28;20503;-79
2024/01/22 12:27:35;;;;;;;22.00;5.32;;;;;;;;;;5027310;28;20049;-79
2024/01/22 12:30:03;;;;;;;20.90;4.70;;;;;;;;;;5028018;28;20407;-79
2024/01/22 12:32:29;;;;;;;20.02;4.88;;;;;;;;;;5009232;28;20042;-80
2024/01/22 12:34:55;;;;;;;22.65;4.45;;;;;;;;;;5027361;28;20675;-80
2024/01/22 12:37:23;;;;;;;24.08;4.72;;;;;;;;;;5008539;28;20045;-80
2024/01/22 12:39:49;;;;;;;26.95;5.32;;;;;;;;;;5010931;28;20392;-79
2024/01/22 12:42:18;;;;;;;24.75;4.70;;;;;;;;;;5028356;28;20061;-81
2024/01/22 12:45:00;;;;;;;23.20;4.68;;;;;;;;;;5010284;28;20050;-80
2024/01/22 12:47:30;;;;;;;22.45;4.55;;;;;;;;;;5028025;28;20061;-80
2024/01/22 12:49:56;;;;;;;21.25;4.07;;;;;;;;;;5028382;28;20049;-80
2024/01/22 12:52:22;;;;;;;20.85;4.53;;;;;;;;;;5035387;28;20135;-79
2024/01/22 12:54:49;;;;;;;23.35;6.05;;;;;;;;;;5046850;28;20048;-80
2024/01/22 12:57:15;;;;;;;25.77;4.70;;;;;;;;;;5029982;28;20072;-79
2024/01/22 12:59:41;;;;;;;28.30;5.25;;;;;;;;;;5047439;28;20511;-80
2024/01/22 13:02:07;;;;;;;25.58;4.93;;;;;;;;;;5013365;28;20041;-82
2024/01/22 13:04:33;;;;;;;23.92;4.22;;;;;;;;;;5029463;28;20056;-81
2024/01/22 13:06:59;;;;;;;23.92;4.22;;;;;;;;;;5028683;28;20040;-80
2024/01/22 13:09:25;;;;;;;19.83;4.03;;;;;;;;;;5028067;28;20079;-80
2024/01/22 13:11:51;;;;;;;15.68;4.00;;;;;;;;;;5012193;28;20067;-80
2024/01/22 13:14:17;;;;;;;20.40;3.65;;;;;;;;;;5029608;28;20057;-80
2024/01/22 13:16:43;;;;;;;20.90;3.80;;;;;;;;;;5029557;28;20491;-80
2024/01/22 13:19:09;;;;;;;20.05;4.80;;;;;;;;;;5047982;28;20080;-81
2024/01/22 13:21:35;;;;;;;23.08;4.43;;;;;;;;;;5027748;28;20041;-83
2024/01/22 13:24:01;;;;;;;21.58;4.38;;;;;;;;;;5010070;28;20473;-84
2024/01/22 13:26:28;;;;;;;17.63;4.35;;;;;;;;;;5030574;28;20041;-84
2024/01/22 13:28:54;;;;;;;18.75;4.88;;;;;;;;;;5031273;28;20420;-84
2024/01/22 13:31:20;;;;;;;20.48;4.80;;;;;;;;;;5013568;28;20128;-80
2024/01/22 13:33:46;;;;;;;18.17;4.85;;;;;;;;;;5047337;28;20041;-80
2024/01/22 13:36:12;;;;;;;25.95;4.55;;;;;;;;;;5029136;28;20045;-79
2024/01/22 13:38:41;;;;;;;21.45;4.25;;;;;;;;;;5027371;28;20517;-80
2024/01/22 13:41:07;;;;;;;22.30;5.53;;;;;;;;;;5028442;28;20597;-79
2024/01/22 13:43:33;;;;;;;26.45;5.57;;;;;;;;;;5047595;28;20515;-79
2024/01/22 13:46:00;;;;;;;22.50;4.97;;;;;;;;;;5048100;28;20037;-80
2024/01/22 13:48:26;;;;;;;25.58;4.53;;;;;;;;;;5032664;28;20053;-79
2024/01/22 13:50:53;;;;;;;20.65;4.22;;;;;;;;;;5051086;28;20132;-80
2024/01/22 13:53:19;;;;;;;15.95;4.05;;;;;;;;;;5049901;28;20461;-78
2024/01/22 13:55:45;;;;;;;19.98;4.53;;;;;;;;;;5050313;28;20065;-80
2024/01/22 13:58:11;;;;;;;22.92;5.00;;;;;;;;;;5049565;28;20052;-79
2024/01/22 14:00:37;;;;;;;24.05;4.63;;;;;;;;;;5050717;28;20060;-80
2024/01/22 14:03:06;;;;;;;18.40;4.80;;;;;;;;;;5032332;28;20167;-80
2024/01/22 14:05:32;;;;;;;24.20;4.85;;;;;;;;;;5050417;28;20568;-80
2024/01/22 14:07:58;;;;;;;17.77;4.20;;;;;;;;;;5050082;28;20049;-80
2024/01/22 14:10:25;;;;;;;17.77;4.70;;;;;;;;;;5022983;28;20042;-83
2024/01/22 14:12:51;;;;;;;21.33;4.90;;;;;;;;;;5012940;28;20042;-81
2024/01/22 14:15:17;;;;;;;21.10;4.15;;;;;;;;;;5013208;28;20056;-81
2024/01/22 14:17:44;;;;;;;19.70;4.50;;;;;;;;;;4996167;28;20107;-80
2024/01/22 14:20:10;;;;;;;24.10;5.05;;;;;;;;;;5031038;28;20056;-82
2024/01/22 14:22:38;;;;;;;20.85;4.07;;;;;;;;;;5013178;28;20137;-81
2024/01/22 14:25:07;;;;;;;25.45;4.60;;;;;;;;;;4994867;28;20053;-80
2024/01/22 14:27:33;;;;;;;21.02;4.18;;;;;;;;;;5030141;28;20095;-80
2024/01/22 14:29:59;;;;;;;19.85;4.45;;;;;;;;;;5035919;28;20047;-80
2024/01/22 14:32:27;;;;;;;24.77;5.22;;;;;;;;;;5048327;28;20041;-80
2024/01/22 14:34:53;;;;;;;19.35;4.32;;;;;;;;;;5031130;28;20053;-80